createdAt,value
2022-09-28T00:00:06.820Z,938.92
2022-09-28T00:01:08.815Z,938.92
2022-09-28T00:02:11.166Z,938.86
2022-09-28T00:03:12.946Z,938.88
2022-09-28T00:04:14.828Z,938.92
2022-09-28T00:05:16.828Z,938.89
2022-09-28T00:06:18.824Z,938.93
2022-09-28T00:07:21.873Z,938.94
2022-09-28T00:08:23.822Z,938.89
2022-09-28T00:09:25.824Z,938.9
2022-09-28T00:10:27.826Z,938.88
2022-09-28T00:11:29.829Z,938.88
2022-09-28T00:12:32.038Z,938.86
2022-09-28T00:13:33.838Z,938.86
2022-09-28T00:14:35.847Z,938.82
2022-09-28T00:15:37.829Z,938.84
2022-09-28T00:16:39.952Z,938.84
2022-09-28T00:17:41.853Z,938.82
2022-09-28T00:18:43.865Z,938.83
2022-09-28T00:19:46.832Z,938.81
2022-09-28T00:20:48.849Z,938.8
2022-09-28T00:21:52.840Z,938.79
2022-09-28T00:22:54.846Z,938.82
2022-09-28T00:23:56.850Z,938.79
2022-09-28T00:24:58.848Z,938.77
2022-09-28T00:26:00.842Z,938.8
2022-09-28T00:27:02.840Z,938.78
2022-09-28T00:28:04.836Z,938.8
2022-09-28T00:29:06.881Z,938.76
2022-09-28T00:30:08.837Z,938.77
2022-09-28T00:31:10.873Z,938.78
2022-09-28T00:32:12.896Z,938.78
2022-09-28T00:33:14.840Z,938.75
2022-09-28T00:34:16.873Z,938.76
2022-09-28T00:35:18.842Z,938.68
2022-09-28T00:36:20.831Z,938.73
2022-09-28T00:37:22.835Z,938.68
2022-09-28T00:38:25.833Z,938.7
2022-09-28T00:39:28.015Z,938.68
2022-09-28T00:40:29.902Z,938.67
2022-09-28T00:41:31.834Z,938.68
2022-09-28T00:42:33.834Z,938.68
2022-09-28T00:43:35.838Z,938.64
2022-09-28T00:44:38.083Z,938.64
2022-09-28T00:45:39.913Z,938.64
2022-09-28T00:46:42.840Z,938.62
2022-09-28T00:47:44.882Z,938.62
2022-09-28T00:48:46.848Z,938.65
2022-09-28T00:49:49.051Z,938.61
2022-09-28T00:50:52.849Z,938.64
2022-09-28T00:51:54.914Z,938.6
2022-09-28T00:52:56.851Z,938.62
2022-09-28T00:53:59.856Z,938.59
2022-09-28T00:55:02.031Z,938.61
2022-09-28T00:56:03.840Z,938.57
2022-09-28T00:57:05.842Z,938.55
2022-09-28T00:58:07.849Z,938.54
2022-09-28T00:59:09.920Z,938.5
2022-09-28T01:00:11.905Z,938.51
2022-09-28T01:01:13.912Z,938.48
2022-09-28T01:02:15.893Z,938.47
2022-09-28T01:03:17.876Z,938.47
2022-09-28T01:04:19.856Z,938.45
2022-09-28T01:05:21.861Z,938.45
2022-09-28T01:06:23.857Z,938.47
2022-09-28T01:07:25.850Z,938.44
2022-09-28T01:08:27.856Z,938.46
2022-09-28T01:09:29.856Z,938.41
2022-09-28T01:10:31.877Z,938.41
2022-09-28T01:11:33.859Z,938.4
2022-09-28T01:12:35.870Z,938.37
2022-09-28T01:13:38.859Z,938.4
2022-09-28T01:14:40.856Z,938.43
2022-09-28T01:15:42.880Z,938.42
2022-09-28T01:16:44.926Z,938.41
2022-09-28T01:17:46.867Z,938.39
2022-09-28T01:18:48.896Z,938.39
2022-09-28T01:19:52.869Z,938.37
2022-09-28T01:20:54.869Z,938.35
2022-09-28T01:21:56.868Z,938.37
2022-09-28T01:22:59.955Z,938.38
2022-09-28T01:24:01.862Z,938.38
2022-09-28T01:25:03.871Z,938.34
2022-09-28T01:26:05.874Z,938.35
2022-09-28T01:27:08.203Z,938.34
2022-09-28T01:28:10.878Z,938.31
2022-09-28T01:29:12.953Z,938.32
2022-09-28T01:30:14.876Z,938.29
2022-09-28T01:31:16.945Z,938.28
2022-09-28T01:32:19.899Z,938.27
2022-09-28T01:33:21.892Z,938.27
2022-09-28T01:34:23.911Z,938.21
2022-09-28T01:35:25.873Z,938.21
2022-09-28T01:36:27.876Z,938.17
2022-09-28T01:37:29.876Z,938.17
2022-09-28T01:38:31.926Z,938.12
2022-09-28T01:39:33.877Z,938.11
2022-09-28T01:40:35.911Z,938.08
2022-09-28T01:41:37.883Z,938.09
2022-09-28T01:42:39.885Z,938.07
2022-09-28T01:43:43.031Z,938.04
2022-09-28T01:44:44.895Z,938.01
2022-09-28T01:45:46.919Z,938
2022-09-28T01:46:48.936Z,937.99
2022-09-28T01:47:51.883Z,937.97
2022-09-28T01:48:53.893Z,937.94
2022-09-28T01:49:55.904Z,937.91
2022-09-28T01:50:57.880Z,937.91
2022-09-28T01:51:59.890Z,937.9
2022-09-28T01:53:01.892Z,937.87
2022-09-28T01:54:03.892Z,937.87
2022-09-28T01:55:05.910Z,937.87
2022-09-28T01:56:07.884Z,937.85
2022-09-28T01:57:09.887Z,937.84
2022-09-28T01:58:11.889Z,937.81
2022-09-28T01:59:13.906Z,937.82
2022-09-28T02:00:15.922Z,937.78
2022-09-28T02:01:17.952Z,937.81
2022-09-28T02:02:19.986Z,937.8
2022-09-28T02:03:21.892Z,937.79
2022-09-28T02:04:23.899Z,937.73
2022-09-28T02:05:25.937Z,937.75
2022-09-28T02:06:27.899Z,937.75
2022-09-28T02:07:29.920Z,937.74
2022-09-28T02:08:31.898Z,937.75
2022-09-28T02:09:33.991Z,937.7
2022-09-28T02:10:35.927Z,937.7
2022-09-28T02:11:37.904Z,937.65
2022-09-28T02:12:39.909Z,937.65
2022-09-28T02:13:41.907Z,937.68
2022-09-28T02:14:44.899Z,937.64
2022-09-28T02:15:47.100Z,937.69
2022-09-28T02:16:48.913Z,937.73
2022-09-28T02:17:52.941Z,937.75
2022-09-28T02:18:55.914Z,937.72
2022-09-28T02:19:57.903Z,937.77
2022-09-28T02:20:59.910Z,937.81
2022-09-28T02:22:01.906Z,937.84
2022-09-28T02:23:03.988Z,937.9
2022-09-28T02:24:06.915Z,937.93
2022-09-28T02:25:08.943Z,937.95
2022-09-28T02:26:10.912Z,937.96
2022-09-28T02:27:12.918Z,938.01
2022-09-28T02:28:15.917Z,938.02
2022-09-28T02:29:19.138Z,938.01
2022-09-28T02:30:20.920Z,938.05
2022-09-28T02:31:23.000Z,938.03
2022-09-28T02:32:24.930Z,938.02
2022-09-28T02:33:26.916Z,938.02
2022-09-28T02:34:28.920Z,937.97
2022-09-28T02:35:30.913Z,937.95
2022-09-28T02:36:32.910Z,937.94
2022-09-28T02:37:34.922Z,937.95
2022-09-28T02:38:37.923Z,937.9
2022-09-28T02:39:39.928Z,937.86
2022-09-28T02:40:42.231Z,937.84
2022-09-28T02:41:43.921Z,937.82
2022-09-28T02:42:45.936Z,937.83
2022-09-28T02:43:48.937Z,937.8
2022-09-28T02:44:51.927Z,937.82
2022-09-28T02:45:53.985Z,937.77
2022-09-28T02:46:55.925Z,937.73
2022-09-28T02:47:57.924Z,937.76
2022-09-28T02:49:17.264Z,937.74
2022-09-28T02:50:01.927Z,937.71
2022-09-28T02:51:03.928Z,937.67
2022-09-28T02:52:05.925Z,937.61
2022-09-28T02:53:07.920Z,937.55
2022-09-28T02:54:09.929Z,937.52
2022-09-28T02:55:11.926Z,937.52
2022-09-28T02:56:13.934Z,937.53
2022-09-28T02:57:15.940Z,937.56
2022-09-28T02:58:17.938Z,937.55
2022-09-28T02:59:20.934Z,937.58
2022-09-28T03:00:22.967Z,937.58
2022-09-28T03:01:25.039Z,937.54
2022-09-28T03:02:27.030Z,937.55
2022-09-28T03:03:28.936Z,937.53
2022-09-28T03:04:30.972Z,937.51
2022-09-28T03:05:32.962Z,937.48
2022-09-28T03:06:34.935Z,937.47
2022-09-28T03:07:36.944Z,937.45
2022-09-28T03:08:38.939Z,937.42
2022-09-28T03:09:40.988Z,937.43
2022-09-28T03:10:43.099Z,937.43
2022-09-28T03:11:45.937Z,937.43
2022-09-28T03:12:48.967Z,937.44
2022-09-28T03:13:51.951Z,937.46
2022-09-28T03:14:54.952Z,937.44
2022-09-28T03:15:57.021Z,937.4
2022-09-28T03:16:59.002Z,937.41
2022-09-28T03:18:01.948Z,937.34
2022-09-28T03:19:03.940Z,937.31
2022-09-28T03:20:05.936Z,937.28
2022-09-28T03:21:07.955Z,937.28
2022-09-28T03:22:09.979Z,937.28
2022-09-28T03:23:24.366Z,937.31
2022-09-28T03:24:14.948Z,937.3
2022-09-28T03:25:16.949Z,937.29
2022-09-28T03:26:18.945Z,937.25
2022-09-28T03:27:21.016Z,937.26
2022-09-28T03:28:22.946Z,937.22
2022-09-28T03:29:24.955Z,937.21
2022-09-28T03:30:26.956Z,937.19
2022-09-28T03:31:28.997Z,937.2
2022-09-28T03:32:30.991Z,937.18
2022-09-28T03:33:32.971Z,937.2
2022-09-28T03:34:34.954Z,937.23
2022-09-28T03:35:36.964Z,937.2
2022-09-28T03:36:38.966Z,937.18
2022-09-28T03:37:41.976Z,937.16
2022-09-28T03:38:43.955Z,937.14
2022-09-28T03:39:45.953Z,937.1
2022-09-28T03:40:49.072Z,937.14
2022-09-28T03:41:51.963Z,937.1
2022-09-28T03:42:54.003Z,937.08
2022-09-28T03:43:56.006Z,937.05
2022-09-28T03:44:57.960Z,937.03
2022-09-28T03:46:00.038Z,937.02
2022-09-28T03:47:01.970Z,937.04
2022-09-28T03:48:03.993Z,937.03
2022-09-28T03:49:05.965Z,937.01
2022-09-28T03:50:07.966Z,937.03
2022-09-28T03:51:09.966Z,937.04
2022-09-28T03:52:11.971Z,937.06
2022-09-28T03:53:14.999Z,937.08
2022-09-28T03:54:17.054Z,937.07
2022-09-28T03:55:19.975Z,937.04
2022-09-28T03:56:21.971Z,937.06
2022-09-28T03:57:23.965Z,937.03
2022-09-28T03:58:26.049Z,936.98
2022-09-28T03:59:27.973Z,937
2022-09-28T04:00:29.978Z,936.98
2022-09-28T04:01:32.091Z,936.98
2022-09-28T04:02:35.080Z,936.95
2022-09-28T04:03:37.006Z,936.95
2022-09-28T04:04:38.977Z,936.96
2022-09-28T04:05:41.044Z,936.96
2022-09-28T04:06:42.979Z,936.9
2022-09-28T04:07:44.991Z,936.88
2022-09-28T04:08:47.011Z,936.86
2022-09-28T04:09:52.992Z,936.85
2022-09-28T04:10:54.986Z,936.86
2022-09-28T04:12:03.916Z,936.84
2022-09-28T04:12:58.988Z,936.85
2022-09-28T04:14:01.176Z,936.84
2022-09-28T04:15:02.993Z,936.81
2022-09-28T04:16:05.053Z,936.8
2022-09-28T04:17:06.989Z,936.76
2022-09-28T04:18:08.996Z,936.72
2022-09-28T04:19:11.006Z,936.72
2022-09-28T04:20:13.031Z,936.65
2022-09-28T04:21:14.996Z,936.69
2022-09-28T04:22:16.991Z,936.67
2022-09-28T04:23:18.996Z,936.63
2022-09-28T04:24:21.029Z,936.63
2022-09-28T04:25:24.061Z,936.6
2022-09-28T04:26:27.020Z,936.57
2022-09-28T04:27:28.999Z,936.55
2022-09-28T04:28:30.997Z,936.51
2022-09-28T04:29:33.999Z,936.54
2022-09-28T04:30:37.023Z,936.5
2022-09-28T04:31:39.040Z,936.48
2022-09-28T04:32:41.999Z,936.46
2022-09-28T04:33:44.005Z,936.48
2022-09-28T04:34:47.000Z,936.45
2022-09-28T04:35:53.010Z,936.44
2022-09-28T04:36:54.991Z,936.42
2022-09-28T04:37:57.001Z,936.39
2022-09-28T04:39:00.014Z,936.38
2022-09-28T04:40:03.004Z,936.35
2022-09-28T04:41:05.007Z,936.34
2022-09-28T04:42:07.994Z,936.27
2022-09-28T04:43:10.011Z,936.26
2022-09-28T04:44:12.008Z,936.25
2022-09-28T04:45:14.018Z,936.24
2022-09-28T04:46:16.067Z,936.22
2022-09-28T04:47:19.011Z,936.21
2022-09-28T04:48:21.008Z,936.19
2022-09-28T04:49:23.014Z,936.18
2022-09-28T04:50:25.007Z,936.14
2022-09-28T04:51:27.202Z,936.13
2022-09-28T04:52:30.195Z,936.08
2022-09-28T04:53:32.021Z,936.08
2022-09-28T04:54:34.028Z,936.01
2022-09-28T04:55:36.010Z,936.02
2022-09-28T04:56:38.019Z,935.97
2022-09-28T04:57:40.387Z,935.94
2022-09-28T04:58:52.982Z,935.93
2022-09-28T04:59:47.914Z,935.93
2022-09-28T05:00:49.928Z,935.92
2022-09-28T05:01:51.951Z,935.89
2022-09-28T05:02:53.887Z,935.89
2022-09-28T05:03:55.912Z,935.9
2022-09-28T05:04:57.958Z,935.9
2022-09-28T05:05:59.910Z,935.88
2022-09-28T05:07:01.932Z,935.89
2022-09-28T05:08:04.912Z,935.87
2022-09-28T05:09:06.911Z,935.9
2022-09-28T05:10:08.938Z,935.89
2022-09-28T05:11:11.920Z,935.89
2022-09-28T05:12:13.915Z,935.86
2022-09-28T05:13:15.914Z,935.89
2022-09-28T05:14:17.918Z,935.91
2022-09-28T05:15:19.934Z,935.94
2022-09-28T05:16:21.944Z,935.98
2022-09-28T05:17:23.954Z,935.88
2022-09-28T05:18:25.915Z,935.88
2022-09-28T05:19:27.910Z,935.88
2022-09-28T05:20:29.912Z,935.85
2022-09-28T05:21:31.912Z,935.77
2022-09-28T05:22:33.953Z,935.75
2022-09-28T05:23:35.925Z,935.74
2022-09-28T05:24:37.950Z,935.69
2022-09-28T05:25:39.920Z,935.67
2022-09-28T05:26:41.918Z,935.66
2022-09-28T05:27:44.985Z,935.68
2022-09-28T05:28:47.956Z,935.71
2022-09-28T05:29:50.006Z,935.66
2022-09-28T05:30:53.231Z,935.66
2022-09-28T05:31:54.124Z,935.66
2022-09-28T05:32:56.358Z,935.63
2022-09-28T05:33:58.280Z,935.65
2022-09-28T05:35:01.051Z,935.64
2022-09-28T05:36:09.203Z,935.64
2022-09-28T05:37:06.535Z,935.63
2022-09-28T05:38:06.803Z,935.6
2022-09-28T05:39:08.683Z,935.58
2022-09-28T05:40:11.237Z,935.53
2022-09-28T05:41:12.635Z,935.54
2022-09-28T05:42:14.671Z,935.49
2022-09-28T05:43:17.794Z,935.45
2022-09-28T05:44:19.129Z,935.45
2022-09-28T05:45:20.792Z,935.43
2022-09-28T05:46:22.602Z,935.46
2022-09-28T05:47:24.350Z,935.51
2022-09-28T05:48:26.437Z,935.51
2022-09-28T05:49:29.967Z,935.55
2022-09-28T05:50:32.253Z,935.58
2022-09-28T05:51:33.839Z,935.55
2022-09-28T05:52:35.651Z,935.6
2022-09-28T05:53:40.839Z,935.61
2022-09-28T05:54:40.129Z,935.62
2022-09-28T05:56:44.090Z,935.53
2022-09-28T05:57:45.888Z,935.51
2022-09-28T06:00:53.366Z,935.51
2022-09-28T06:01:54.893Z,935.49
2022-09-28T06:03:10.508Z,935.4
2022-09-28T06:03:59.119Z,935.32
2022-09-28T06:05:03.097Z,935.31
2022-09-28T06:06:03.416Z,935.31
2022-09-28T06:07:14.657Z,935.28
2022-09-28T06:08:07.706Z,935.24
2022-09-28T06:09:09.389Z,935.23
2022-09-28T06:10:11.312Z,935.19
2022-09-28T06:11:13.046Z,935.19
2022-09-28T06:12:16.445Z,935.21
2022-09-28T06:13:19.297Z,935.25
2022-09-28T06:14:51.216Z,935.25
2022-09-28T06:16:25.281Z,935.24
2022-09-28T06:17:51.376Z,935.26
2022-09-28T06:18:51.465Z,935.27
2022-09-28T06:19:51.239Z,935.27
2022-09-28T06:20:52.361Z,935.26
2022-09-28T06:21:51.259Z,935.28
2022-09-28T06:22:51.506Z,935.31
2022-09-28T06:23:52.245Z,935.32
2022-09-28T06:24:51.135Z,935.27
2022-09-28T06:25:50.969Z,935.26
2022-09-28T06:26:51.147Z,935.23
2022-09-28T06:27:51.176Z,935.2
2022-09-28T06:28:52.319Z,935.22
2022-09-28T06:29:53.627Z,935.26
2022-09-28T06:30:56.179Z,935.28
2022-09-28T06:31:57.981Z,935.26
2022-09-28T06:33:10.712Z,935.25
2022-09-28T06:34:03.516Z,935.23
2022-09-28T06:35:05.319Z,935.23
2022-09-28T06:36:07.420Z,935.19
2022-09-28T06:37:08.966Z,935.16
2022-09-28T06:38:11.069Z,935.12
2022-09-28T06:39:13.403Z,935.07
2022-09-28T06:40:18.377Z,935.07
2022-09-28T06:41:26.858Z,935.07
2022-09-28T06:42:19.368Z,935.06
2022-09-28T06:43:21.229Z,935.07
2022-09-28T06:44:23.332Z,935.06
2022-09-28T06:45:26.148Z,935.06
2022-09-28T06:46:37.941Z,935.06
2022-09-28T06:47:35.879Z,935.1
2022-09-28T06:48:31.776Z,935.13
2022-09-28T06:49:34.751Z,935.11
2022-09-28T06:50:37.216Z,935.14
2022-09-28T06:51:38.795Z,935.15
2022-09-28T06:52:41.017Z,935.15
2022-09-28T06:53:42.741Z,935.17
2022-09-28T06:54:44.872Z,935.2
2022-09-28T06:55:47.117Z,935.17
2022-09-28T06:56:49.162Z,935.18
2022-09-28T06:57:52.927Z,935.14
2022-09-28T06:58:55.756Z,935.11
2022-09-28T06:59:58.009Z,935.08
2022-09-28T07:01:08.690Z,935.09
2022-09-28T07:02:10.337Z,935.12
2022-09-28T07:03:04.662Z,935.1
2022-09-28T07:04:06.674Z,935.06
2022-09-28T07:05:08.658Z,935.02
2022-09-28T07:06:10.588Z,935.02
2022-09-28T07:07:13.617Z,935.02
2022-09-28T07:08:15.611Z,935
2022-09-28T07:09:29.747Z,935.04
2022-09-28T07:10:19.833Z,935.03
2022-09-28T07:11:21.599Z,935.01
2022-09-28T07:12:23.608Z,935.01
2022-09-28T07:13:45.007Z,935.01
2022-09-28T07:14:40.480Z,935.04
2022-09-28T07:15:29.666Z,935.04
2022-09-28T07:16:53.356Z,935.03
2022-09-28T07:17:41.589Z,935.03
2022-09-28T07:18:37.619Z,935.06
2022-09-28T07:19:39.619Z,935.08
2022-09-28T07:20:52.946Z,935.06
2022-09-28T07:21:44.217Z,935.02
2022-09-28T07:22:45.716Z,935.02
2022-09-28T07:23:53.191Z,935.02
2022-09-28T07:24:51.676Z,935.03
2022-09-28T07:26:00.852Z,935.02
2022-09-28T07:26:55.634Z,935.06
2022-09-28T07:27:57.655Z,935.03
2022-09-28T07:28:59.673Z,935.07
2022-09-28T07:30:01.745Z,935.07
2022-09-28T07:31:03.754Z,935.13
2022-09-28T07:32:05.631Z,935.13
2022-09-28T07:33:07.634Z,935.15
2022-09-28T07:34:09.712Z,935.12
2022-09-28T07:35:11.673Z,935.1
2022-09-28T07:36:13.636Z,935.09
2022-09-28T07:37:15.692Z,935.11
2022-09-28T07:38:17.639Z,935.11
2022-09-28T07:39:19.637Z,935.06
2022-09-28T07:40:21.853Z,935.06
2022-09-28T07:41:23.642Z,935.06
2022-09-28T07:42:25.854Z,935.02
2022-09-28T07:43:27.633Z,935.01
2022-09-28T07:44:29.645Z,935
2022-09-28T07:45:32.771Z,934.98
2022-09-28T07:46:34.650Z,934.98
2022-09-28T07:47:36.658Z,934.96
2022-09-28T07:50:43.905Z,935.02
2022-09-28T07:53:28.455Z,935.05
2022-09-28T07:54:50.735Z,935.06
2022-09-28T07:56:50.762Z,935.1
2022-09-28T07:57:50.759Z,935.1
2022-09-28T07:58:50.754Z,935.11
2022-09-28T07:59:50.740Z,935.13
2022-09-28T08:00:50.845Z,935.16
2022-09-28T08:01:50.766Z,935.13
2022-09-28T08:02:50.759Z,935.13
2022-09-28T08:03:50.756Z,935.17
2022-09-28T08:04:52.393Z,935.18
2022-09-28T08:05:54.378Z,935.17
2022-09-28T08:06:56.423Z,935.24
2022-09-28T08:07:58.383Z,935.22
2022-09-28T08:09:01.877Z,935.23
2022-09-28T08:10:02.417Z,935.26
2022-09-28T08:11:05.395Z,935.24
2022-09-28T08:12:07.421Z,935.25
2022-09-28T08:13:09.376Z,935.24
2022-09-28T08:14:11.382Z,935.23
2022-09-28T08:15:13.400Z,935.26
2022-09-28T08:16:16.538Z,935.29
2022-09-28T08:17:19.435Z,935.31
2022-09-28T08:18:21.414Z,935.31
2022-09-28T08:19:23.391Z,935.32
2022-09-28T08:20:25.395Z,935.31
2022-09-28T08:21:27.387Z,935.34
2022-09-28T08:22:29.419Z,935.34
2022-09-28T08:23:32.425Z,935.35
2022-09-28T08:24:34.388Z,935.37
2022-09-28T08:26:54.780Z,935.32
2022-09-28T08:29:09.773Z,935.34
2022-09-28T08:32:05.845Z,935.38
2022-09-28T08:33:07.831Z,935.4
2022-09-28T08:34:09.946Z,935.38
2022-09-28T08:35:12.034Z,935.38
2022-09-28T08:36:13.856Z,935.41
2022-09-28T08:37:15.833Z,935.37
2022-09-28T08:38:17.873Z,935.38
2022-09-28T08:39:20.656Z,935.36
2022-09-28T08:40:22.916Z,935.34
2022-09-28T08:42:26.846Z,935.31
2022-09-28T08:43:30.842Z,935.32
2022-09-28T08:44:32.883Z,935.3
2022-09-28T08:45:34.864Z,935.31
2022-09-28T08:46:36.860Z,935.31
2022-09-28T08:47:39.842Z,935.3
2022-09-28T08:48:41.845Z,935.33
2022-09-28T08:49:43.865Z,935.32
2022-09-28T08:50:45.872Z,935.29
2022-09-28T08:51:47.879Z,935.3
2022-09-28T08:52:49.844Z,935.32
2022-09-28T08:53:51.878Z,935.32
2022-09-28T08:55:55.853Z,935.31
2022-09-28T08:56:57.856Z,935.33
2022-09-28T08:57:59.847Z,935.31
2022-09-28T08:59:01.849Z,935.36
2022-09-28T09:00:09.617Z,935.32
2022-09-28T09:01:06.902Z,935.32
2022-09-28T09:02:08.926Z,935.36
2022-09-28T09:03:10.848Z,935.38
2022-09-28T09:04:12.855Z,935.36
2022-09-28T09:05:14.967Z,935.39
2022-09-28T09:06:18.644Z,935.44
2022-09-28T09:07:18.872Z,935.43
2022-09-28T09:08:21.848Z,935.39
2022-09-28T09:09:23.853Z,935.45
2022-09-28T09:10:26.913Z,935.45
2022-09-28T09:11:29.849Z,935.46
2022-09-28T09:12:31.859Z,935.46
2022-09-28T09:13:33.857Z,935.5
2022-09-28T09:14:35.862Z,935.5
2022-09-28T09:15:38.283Z,935.49
2022-09-28T09:16:39.917Z,935.49
2022-09-28T09:18:11.154Z,935.51
2022-09-28T09:18:50.806Z,935.5
2022-09-28T09:19:50.794Z,935.49
2022-09-28T09:20:50.833Z,935.48
2022-09-28T09:21:51.636Z,935.44
2022-09-28T09:22:54.668Z,935.48
2022-09-28T09:23:56.695Z,935.49
2022-09-28T09:24:58.733Z,935.47
2022-09-28T09:26:09.198Z,935.46
2022-09-28T09:27:15.134Z,935.5
2022-09-28T09:29:10.940Z,935.58
2022-09-28T09:30:10.997Z,935.56
2022-09-28T09:31:13.116Z,935.56
2022-09-28T09:32:15.005Z,935.6
2022-09-28T09:33:17.043Z,935.64
2022-09-28T09:34:19.315Z,935.6
2022-09-28T09:35:23.095Z,935.64
2022-09-28T09:36:23.106Z,935.57
2022-09-28T09:37:25.230Z,935.68
2022-09-28T09:38:51.490Z,935.65
2022-09-28T09:39:51.296Z,935.59
2022-09-28T09:40:51.245Z,935.6
2022-09-28T09:41:51.019Z,935.6
2022-09-28T09:42:50.872Z,935.59
2022-09-28T09:43:50.871Z,935.62
2022-09-28T09:44:50.824Z,935.6
2022-09-28T09:45:50.929Z,935.61
2022-09-28T09:46:50.824Z,935.62
2022-09-28T09:47:50.819Z,935.6
2022-09-28T09:48:50.847Z,935.62
2022-09-28T09:49:50.857Z,935.62
2022-09-28T09:50:52.657Z,935.63
2022-09-28T09:51:54.656Z,935.62
2022-09-28T09:52:57.690Z,935.64
2022-09-28T09:54:06.716Z,935.65
2022-09-28T09:55:02.654Z,935.63
2022-09-28T09:56:04.704Z,935.65
2022-09-28T09:57:07.655Z,935.63
2022-09-28T09:58:09.681Z,935.63
2022-09-28T09:59:11.734Z,935.6
2022-09-28T10:01:19.887Z,935.65
2022-09-28T10:04:50.839Z,935.68
2022-09-28T10:05:51.069Z,935.69
2022-09-28T10:06:50.916Z,935.7
2022-09-28T10:07:50.818Z,935.74
2022-09-28T10:09:50.835Z,935.73
2022-09-28T10:10:50.864Z,935.8
2022-09-28T10:11:50.860Z,935.8
2022-09-28T10:12:50.830Z,935.81
2022-09-28T10:13:50.849Z,935.84
2022-09-28T10:14:50.847Z,935.88
2022-09-28T10:15:51.689Z,935.88
2022-09-28T10:16:53.849Z,935.95
2022-09-28T10:17:55.704Z,935.98
2022-09-28T10:18:57.692Z,936.08
2022-09-28T10:19:59.867Z,936.1
2022-09-28T10:21:01.694Z,936.1
2022-09-28T10:22:06.374Z,936.14
2022-09-28T10:23:05.697Z,936.06
2022-09-28T10:24:07.694Z,936.2
2022-09-28T10:25:10.716Z,936.05
2022-09-28T10:26:12.746Z,936.05
2022-09-28T10:27:14.697Z,936.03
2022-09-28T10:28:16.696Z,936.05
2022-09-28T10:29:18.867Z,936.04
2022-09-28T10:30:20.696Z,936.04
2022-09-28T10:31:22.794Z,936.05
2022-09-28T10:32:25.705Z,936.04
2022-09-28T10:33:27.728Z,936.02
2022-09-28T10:34:30.696Z,936.01
2022-09-28T10:35:32.751Z,936.02
2022-09-28T10:36:34.760Z,936.07
2022-09-28T10:37:36.698Z,936.05
2022-09-28T10:38:38.709Z,936.08
2022-09-28T10:39:40.712Z,936.04
2022-09-28T10:40:42.744Z,936.02
2022-09-28T10:41:45.170Z,936.04
2022-09-28T10:42:46.705Z,936.02
2022-09-28T10:43:50.644Z,936.07
2022-09-28T10:44:50.910Z,936.06
2022-09-28T10:45:52.765Z,936.07
2022-09-28T10:46:54.732Z,936.07
2022-09-28T10:47:56.714Z,936.08
2022-09-28T10:48:58.767Z,936.04
2022-09-28T10:50:00.708Z,936.09
2022-09-28T10:51:02.706Z,936.07
2022-09-28T10:52:04.725Z,936.07
2022-09-28T10:53:06.708Z,936.1
2022-09-28T10:54:08.709Z,936.03
2022-09-28T10:55:10.708Z,936.07
2022-09-28T10:56:12.717Z,936.1
2022-09-28T10:57:14.742Z,936.09
2022-09-28T10:59:18.745Z,936.11
2022-09-28T11:00:20.721Z,936.22
2022-09-28T11:01:22.757Z,936.11
2022-09-28T11:02:24.767Z,936.14
2022-09-28T11:03:27.754Z,936.17
2022-09-28T11:04:31.718Z,936.16
2022-09-28T11:05:33.765Z,936.11
2022-09-28T11:06:35.711Z,936.14
2022-09-28T11:07:37.738Z,936.1
2022-09-28T11:08:40.735Z,936.15
2022-09-28T11:09:44.778Z,936.15
2022-09-28T11:10:44.830Z,936.19
2022-09-28T11:11:46.736Z,936.17
2022-09-28T11:12:48.719Z,936.18
2022-09-28T11:13:50.741Z,936.13
2022-09-28T11:14:52.754Z,936.17
2022-09-28T11:15:54.729Z,936.12
2022-09-28T11:16:56.813Z,936.16
2022-09-28T11:17:59.727Z,936.12
2022-09-28T11:19:01.731Z,936.12
2022-09-28T11:20:03.742Z,936.13
2022-09-28T11:21:07.247Z,936.17
2022-09-28T11:22:08.801Z,936.26
2022-09-28T11:23:09.732Z,936.21
2022-09-28T11:24:14.433Z,936.2
2022-09-28T11:25:19.566Z,936.19
2022-09-28T11:26:27.840Z,936.29
2022-09-28T11:27:18.732Z,936.3
2022-09-28T11:28:20.761Z,936.23
2022-09-28T11:29:22.737Z,936.22
2022-09-28T11:30:24.848Z,936.22
2022-09-28T11:31:28.743Z,936.2
2022-09-28T11:32:30.739Z,936.2
2022-09-28T11:33:32.736Z,936.24
2022-09-28T11:34:57.386Z,936.22
2022-09-28T11:35:36.773Z,936.25
2022-09-28T11:36:39.789Z,936.26
2022-09-28T11:37:41.733Z,936.22
2022-09-28T11:38:43.740Z,936.15
2022-09-28T11:39:45.750Z,936.18
2022-09-28T11:40:47.828Z,936.22
2022-09-28T11:41:49.746Z,936.13
2022-09-28T11:42:51.757Z,936.18
2022-09-28T11:43:55.743Z,936.16
2022-09-28T11:44:57.741Z,936.27
2022-09-28T11:45:59.786Z,936.2
2022-09-28T11:48:03.734Z,936.15
2022-09-28T11:49:06.747Z,936.14
2022-09-28T11:50:08.761Z,936.25
2022-09-28T11:51:10.791Z,936.16
2022-09-28T11:52:50.958Z,936.22
2022-09-28T11:53:50.908Z,936.26
2022-09-28T11:54:50.904Z,936.3
2022-09-28T11:55:50.948Z,936.23
2022-09-28T11:56:51.135Z,936.26
2022-09-28T11:57:50.903Z,936.24
2022-09-28T11:58:50.910Z,936.34
2022-09-28T11:59:50.926Z,936.32
2022-09-28T12:00:50.961Z,936.4
2022-09-28T12:01:50.903Z,936.5
2022-09-28T12:02:51.046Z,936.57
2022-09-28T12:03:51.068Z,936.61
2022-09-28T12:04:50.975Z,936.6
2022-09-28T12:05:50.922Z,936.68
2022-09-28T12:06:50.952Z,936.68
2022-09-28T12:07:50.911Z,936.78
2022-09-28T12:08:50.910Z,936.75
2022-09-28T12:09:50.949Z,936.74
2022-09-28T12:10:51.774Z,936.75
2022-09-28T12:11:53.770Z,936.73
2022-09-28T12:13:57.766Z,936.75
2022-09-28T12:15:00.793Z,936.78
2022-09-28T12:16:38.395Z,936.81
2022-09-28T12:17:07.734Z,936.77
2022-09-28T12:18:06.866Z,936.73
2022-09-28T12:19:08.766Z,936.73
2022-09-28T12:20:10.819Z,936.75
2022-09-28T12:21:12.800Z,936.81
2022-09-28T12:22:15.816Z,936.76
2022-09-28T12:23:17.770Z,936.79
2022-09-28T12:24:19.773Z,936.82
2022-09-28T12:25:21.796Z,936.89
2022-09-28T12:26:23.819Z,936.88
2022-09-28T12:27:25.782Z,936.91
2022-09-28T12:28:27.799Z,936.9
2022-09-28T12:29:30.772Z,936.95
2022-09-28T12:30:32.870Z,936.89
2022-09-28T12:31:34.782Z,936.89
2022-09-28T12:32:36.784Z,936.84
2022-09-28T12:33:38.785Z,936.82
2022-09-28T12:34:40.787Z,936.78
2022-09-28T12:35:42.812Z,936.79
2022-09-28T12:36:44.791Z,936.76
2022-09-28T12:43:38.830Z,936.75
2022-09-28T12:47:41.642Z,936.88
2022-09-28T12:53:04.371Z,936.9
2022-09-28T12:59:17.934Z,936.95
2022-09-28T13:00:27.416Z,936.98
2022-09-28T13:01:27.486Z,936.98
2022-09-28T13:08:43.830Z,936.97
2022-09-28T13:09:44.279Z,936.95
2022-09-28T13:11:59.381Z,937.03
2022-09-28T13:11:59.871Z,937.04
2022-09-28T13:13:30.882Z,937.03
2022-09-28T13:17:49.204Z,937
2022-09-28T13:20:30.575Z,936.99
2022-09-28T13:21:47.610Z,936.86
2022-09-28T13:22:24.010Z,937.05
2022-09-28T13:23:34.490Z,937.02
2022-09-28T13:24:31.585Z,937.07
2022-09-28T13:26:35.633Z,936.95
2022-09-28T13:27:25.522Z,937.06
2022-09-28T13:30:04.208Z,937.09
2022-09-28T13:33:32.995Z,937.06
2022-09-28T13:35:48.113Z,937.21
2022-09-28T13:37:56.968Z,937.46
2022-09-28T13:39:38.665Z,937.37
2022-09-28T13:42:00.465Z,937.34
2022-09-28T13:43:52.644Z,937.36
2022-09-28T13:46:57.249Z,937.3
2022-09-28T13:49:01.852Z,937.18
2022-09-28T13:50:52.646Z,937.19
2022-09-28T13:51:52.629Z,937.22
2022-09-28T13:53:09.852Z,937.26
2022-09-28T13:54:12.864Z,937.26
2022-09-28T13:55:14.847Z,937.25
2022-09-28T13:56:16.853Z,937.28
2022-09-28T13:57:18.892Z,937.27
2022-09-28T13:58:21.879Z,937.28
2022-09-28T13:59:36.611Z,937.29
2022-09-28T14:00:25.888Z,937.31
2022-09-28T14:01:28.927Z,937.31
2022-09-28T14:03:33.252Z,937.28
2022-09-28T14:04:36.293Z,937.29
2022-09-28T14:06:54.855Z,937.32
2022-09-28T14:07:56.582Z,937.32
2022-09-28T14:08:55.899Z,937.32